WetterOnline ( http://www.wetteronline.de )

Wetter aktuell Geisenheim

Aktuelles Wetter: Geisenheim (110m)

6-stündlich | Neueste Meldungen
Ortszeit Temperatur Wetter
Mo, 22.01. 13:00 3.0° C Sprühregen
Mo, 22.01. 7:00 1.0° C Sprühregen
Mo, 22.01. 1:00 1.3° C Regen
So, 21.01. 19:00 2.5° C bedeckt
So, 21.01. 13:00 4.3° C bewölkt
So, 21.01. 7:00 2.4° C Sprühregen
So, 21.01. 1:00 1.7° C Sprühregen
Sa, 20.01. 19:00 0.7° C leichter Schneefall
Ortszeit Temperatur Wetter
Mo, 22.01. 13:00 3.0° C Sprühregen
Mo, 22.01. 12:50 3.0° C Sprühregen
Mo, 22.01. 12:40 2.7° C bedeckt
Mo, 22.01. 12:30 2.6° C Sprühregen
Mo, 22.01. 12:20 2.6° C Sprühregen
Mo, 22.01. 12:10 2.4° C bedeckt
Mo, 22.01. 12:00 2.1° C bedeckt
Mo, 22.01. 11:30 2.2° C bewölkt
Mo, 22.01. 11:00 1.9° C bewölkt
Mo, 22.01. 10:30 1.6° C bedeckt
Mo, 22.01. 10:00 1.4° C bedeckt
Ortszeit Relative Feuchte Sichtweite
Mo, 22.01. 13:00 94% 3.5 km
Mo, 22.01. 7:00 98% 1.8 km
Mo, 22.01. 1:00 91% 4.8 km
So, 21.01. 19:00 78% 30 km
So, 21.01. 13:00 70% 40 km
So, 21.01. 7:00 85% 3.7 km
So, 21.01. 1:00 94% 8 km
Sa, 20.01. 19:00 97% 7 km
Ortszeit Relative Feuchte Sichtweite
Mo, 22.01. 13:00 94% 3.5 km
Mo, 22.01. 12:50 94% -
Mo, 22.01. 12:40 93% -
Mo, 22.01. 12:30 94% 6 km
Mo, 22.01. 12:20 94% -
Mo, 22.01. 12:10 92% -
Mo, 22.01. 12:00 95% 5.0 km
Mo, 22.01. 11:30 93% 12 km
Mo, 22.01. 11:00 94% 12 km
Mo, 22.01. 10:30 94% 11 km
Mo, 22.01. 10:00 96% 5.0 km
Ortszeit Niederschlagsmenge Niederschlagsart
Mo, 22.01. 13:00 0.4 l/m2 in 6 Std. Regen
Mo, 22.01. 7:00 5 l/m2 in 12 Std. Schnee, Regen
Mo, 22.01. 1:00 0.5 l/m2 in 6 Std. Schnee, Regen
So, 21.01. 19:00 0.1 l/m2 in 12 Std. -
So, 21.01. 13:00 0.1 l/m2 in 6 Std. Regen
So, 21.01. 7:00 0.6 l/m2 in 12 Std. Regen
So, 21.01. 1:00 0.2 l/m2 in 6 Std. Schnee, Regen
Sa, 20.01. 19:00 11 l/m2 in 12 Std. Schnee, Regen
Ortszeit Niederschlagsmenge Niederschlagsart
Mo, 22.01. 13:00 0.1 l/m2 in 1 Std. Regen
Mo, 22.01. 12:50 keine Meldung -
Mo, 22.01. 12:40 keine Meldung -
Mo, 22.01. 12:30 0.1 l/m2 in 1 Std. -
Mo, 22.01. 12:20 keine Meldung -
Mo, 22.01. 12:10 keine Meldung -
Mo, 22.01. 12:00 0.0 l/m2 in 1 Std. -
Mo, 22.01. 11:30 0.0 l/m2 in 1 Std. -
Mo, 22.01. 11:00 0.1 l/m2 in 1 Std. Regen
Mo, 22.01. 10:30 0.0 l/m2 in 1 Std. -
Mo, 22.01. 10:00 0.1 l/m2 in 1 Std. Regen
Ortszeit Stärke Spitze Richtung
km/h Bft. km/h Grad Sektor
Mo, 22.01. 13:00 4 1 7 30° NO
Mo, 22.01. 7:00 6 1 19 80° O
Mo, 22.01. 1:00 6 1 11 130° SO
So, 21.01. 19:00 7 2 28 220° SW
So, 21.01. 13:00 18 3 36 290° W
So, 21.01. 7:00 24 4 46 310° NW
So, 21.01. 1:00 4 1 11 200° S
Sa, 20.01. 19:00 7 2 22 70° O
Ortszeit Stärke Spitze Richtung
km/h Bft. km/h Grad Sektor
Mo, 22.01. 13:00 4 1 7 30° NO
Mo, 22.01. 12:50 4 1 - 30° NO
Mo, 22.01. 12:40 4 1 - 60° NO
Mo, 22.01. 12:30 4 1 7 150° SO
Mo, 22.01. 12:20 4 1 - 150° SO
Mo, 22.01. 12:10 4 1 - 210° SW
Mo, 22.01. 12:00 4 1 7 90° O
Mo, 22.01. 11:30 4 1 7 120° SO
Mo, 22.01. 11:00 4 1 7 90° O
Mo, 22.01. 10:30 6 1 7 20° N
Mo, 22.01. 10:00 2 1 7 30° NO
Ortszeit Untergrenze Bedeckung Gattung
total tief tief mittel hoch
Mo, 22.01. 13:00 90 m 8/8 8/8 - - -
Mo, 22.01. 7:00 60 m 7/8 7/8 - - -
Mo, 22.01. 1:00 210 m 7/8 7/8 - - -
So, 21.01. 19:00 3300 m 8/8 8/8 - - -
So, 21.01. 13:00 750 m 7/8 7/8 - - -
So, 21.01. 7:00 120 m 5/8 - - - -
So, 21.01. 1:00 330 m 8/8 8/8 - - -
Sa, 20.01. 19:00 210 m 7/8 7/8 - - -
Ortszeit Bedeckungsgrad in Achtel und Wolkenuntergrenze
Mo, 22.01. 13:00 8(90m)
Mo, 22.01. 12:50 8(90m)
Mo, 22.01. 12:40 8(90m)
Mo, 22.01. 12:30 8(90m)
Mo, 22.01. 12:20 8(90m)
Mo, 22.01. 12:10 8(60m)
Mo, 22.01. 12:00 8(60m)
Mo, 22.01. 11:30 7(120m)
Mo, 22.01. 11:00 2(60m) 5(210m) 7(360m)
Mo, 22.01. 10:30 4(90m) 7(210m) 8(420m)
Mo, 22.01. 10:00 8(60m)
Ortszeit Luftdruck NN (hPa) Tendenz (hPa in 3 Std.)
Mo, 22.01. 13:00 1010 - 0,1
Mo, 22.01. 7:00 1010 - 1,2
Mo, 22.01. 1:00 1014 - 2,6
So, 21.01. 19:00 1019 - 0,1
So, 21.01. 13:00 1018 + 2,2
So, 21.01. 7:00 1011 + 4,0
So, 21.01. 1:00 1003 + 2,2
Sa, 20.01. 19:00 1000 - 2,0
Ortszeit Luftdruck NN (hPa) Tendenz (hPa in 3 Std.)
Mo, 22.01. 13:00 1010 - 0,1
Mo, 22.01. 12:50 1010 keine Meldung
Mo, 22.01. 12:40 1010 keine Meldung
Mo, 22.01. 12:30 1010 - 0,4
Mo, 22.01. 12:20 1010 keine Meldung
Mo, 22.01. 12:10 1010 keine Meldung
Mo, 22.01. 12:00 1010 0,0
Mo, 22.01. 11:30 1010 - 0,4
Mo, 22.01. 11:00 1010 + 0,1
Mo, 22.01. 10:30 1010 - 0,4
Mo, 22.01. 10:00 1010 - 0,4
Ortszeit Schneehöhe (cm)
Mo, 22.01. 13:00 0
Mo, 22.01. 7:00 0
Mo, 22.01. 1:00 0
So, 21.01. 19:00 0
So, 21.01. 13:00 0
So, 21.01. 7:00 0
So, 21.01. 1:00 0
Sa, 20.01. 19:00 0
Ortszeit Schneehöhe (cm)
Mo, 22.01. 13:00 0
Mo, 22.01. 12:50 0
Mo, 22.01. 12:40 0
Mo, 22.01. 12:30 0
Mo, 22.01. 12:20 0
Mo, 22.01. 12:10 0
Mo, 22.01. 12:00 0
Mo, 22.01. 11:30 0
Mo, 22.01. 11:00 0
Mo, 22.01. 10:30 0
Mo, 22.01. 10:00 0
Link zu dieser Seite / Seite empfehlen

Das Wetter in ...